Time;durP1;ratioP1;P1;durP2;ratioP2;P2;SDS_P1;SDS_P2;PMS_P1;PMS_P2;Temp;Humidity;BMP_temperature;BMP_pressure;BME280_temperature;BME280_humidity;BME280_pressure;Samples;Min_cycle;Max_cycle;Signal;HPM_P1;HPM_P2
2021/06/17 00:00:48;;;;;;;3.00;2.70;;;14.50;99.90;14.20;97066.00;;;;5032437;28;20713;-87
2021/06/17 00:03:37;;;;;;;2.47;2.23;;;14.50;99.90;14.10;97064.00;;;;5033650;28;20221;-89
2021/06/17 00:06:26;;;;;;;3.37;3.07;;;14.50;99.90;14.10;97066.00;;;;5034667;28;20201;-86
2021/06/17 00:09:15;;;;;;;2.90;2.60;;;14.50;99.90;13.90;97068.00;;;;5033308;28;20209;-86
2021/06/17 00:12:05;;;;;;;3.50;3.20;;;14.50;99.90;13.70;97061.00;;;;5032121;28;20201;-86
2021/06/17 00:14:55;;;;;;;3.63;2.70;;;14.40;99.90;13.70;97068.00;;;;5033104;28;20201;-87
2021/06/17 00:17:46;;;;;;;2.63;2.43;;;14.30;99.90;13.80;97065.00;;;;5034354;28;20217;-86
2021/06/17 00:20:35;;;;;;;5.23;4.17;;;14.20;99.90;13.80;97068.00;;;;5033014;28;20604;-86
2021/06/17 00:23:25;;;;;;;5.33;3.07;;;14.20;99.90;13.80;97062.00;;;;5033007;28;20216;-86
2021/06/17 00:26:14;;;;;;;3.10;2.80;;;14.20;99.90;13.70;97055.00;;;;5033401;28;20209;-88
2021/06/17 00:29:03;;;;;;;4.40;3.07;;;14.20;99.90;13.60;97052.00;;;;5032936;28;20197;-86
2021/06/17 00:31:53;;;;;;;4.33;2.77;;;14.10;99.90;13.70;97053.00;;;;5032062;28;20204;-88
2021/06/17 00:34:42;;;;;;;3.83;2.40;;;14.10;99.90;13.80;97055.00;;;;5033040;28;20201;-88
2021/06/17 00:37:31;;;;;;;3.73;3.00;;;14.10;99.90;13.80;97044.00;;;;5033261;28;20942;-87
2021/06/17 00:40:21;;;;;;;4.47;3.77;;;14.10;99.90;13.20;97046.00;;;;5033581;28;20224;-86
2021/06/17 00:43:10;;;;;;;3.60;3.30;;;14.00;99.90;13.20;97043.00;;;;5020937;28;20209;-89
2021/06/17 00:45:59;;;;;;;3.60;3.30;;;13.80;99.90;13.10;97042.00;;;;5033759;28;20201;-85
2021/06/17 00:48:50;;;;;;;11.03;4.47;;;13.70;99.90;13.50;97036.00;;;;5033120;28;20224;-87
2021/06/17 00:51:38;;;;;;;3.97;3.63;;;13.80;99.90;13.20;97043.00;;;;5021507;28;20221;-86
2021/06/17 00:54:36;;;;;;;3.30;3.00;;;13.70;99.90;13.30;97042.00;;;;5032477;28;20212;-86
2021/06/17 00:57:25;;;;;;;3.63;3.33;;;13.70;99.90;13.40;97035.00;;;;5032529;28;20220;-86
2021/06/17 01:00:18;;;;;;;4.87;3.83;;;13.70;99.90;13.50;97041.00;;;;5031043;28;20225;-87
2021/06/17 01:03:07;;;;;;;3.57;3.27;;;13.80;99.90;13.20;97043.00;;;;5020700;28;20206;-88
2021/06/17 01:05:58;;;;;;;6.30;3.50;;;13.80;99.90;13.30;97035.00;;;;5032245;28;20205;-85
2021/06/17 01:09:00;;;;;;;3.50;3.03;;;13.70;99.90;13.30;97038.00;;;;5031847;28;20330;-88
2021/06/17 01:12:05;;;;;;;4.33;3.43;;;13.70;99.90;13.40;97032.00;;;;5030997;28;20220;-87
2021/06/17 01:15:04;;;;;;;4.03;3.07;;;13.70;99.90;13.50;97039.00;;;;5031501;28;20197;-86
2021/06/17 01:17:59;;;;;;;3.83;3.50;;;13.70;99.90;13.20;97033.00;;;;5022149;28;20229;-88
2021/06/17 01:20:56;;;;;;;3.43;3.13;;;13.70;99.90;13.10;97037.00;;;;5030172;28;20609;-85
2021/06/17 01:24:06;;;;;;;4.00;3.47;;;13.70;99.90;12.90;97031.00;;;;5031731;28;20712;-88
2021/06/17 01:27:55;;;;;;;4.00;3.13;;;13.50;99.90;12.60;97024.00;;;;5031580;28;20691;-89
2021/06/17 01:30:52;;;;;;;3.13;2.83;;;13.40;99.90;12.80;97037.00;;;;5009531;28;20236;-86
2021/06/17 01:33:45;;;;;;;7.20;3.90;;;13.30;99.90;12.60;97032.00;;;;5032480;28;20304;-86
2021/06/17 01:36:37;;;;;;;4.13;3.73;;;13.20;99.90;12.50;97029.00;;;;5032097;28;20209;-86
2021/06/17 01:39:27;;;;;;;3.93;3.63;;;13.10;99.90;12.40;97019.00;;;;5030101;28;20212;-87
2021/06/17 01:42:17;;;;;;;3.67;3.30;;;13.00;99.90;12.50;97024.00;;;;5031255;28;20202;-88
2021/06/17 01:45:08;;;;;;;4.50;4.10;;;13.00;99.90;12.60;97032.00;;;;5030868;28;20214;-85
2021/06/17 01:48:00;;;;;;;6.43;3.37;;;13.00;99.90;12.70;97027.00;;;;5019462;28;20584;-85
2021/06/17 01:50:50;;;;;;;7.03;4.60;;;13.00;99.90;12.50;97028.00;;;;5030796;28;20596;-89
2021/06/17 01:53:41;;;;;;;3.60;3.30;;;13.00;99.90;12.60;97015.00;;;;5030793;28;20214;-86
2021/06/17 01:56:30;;;;;;;6.93;3.37;;;13.00;99.90;12.70;97016.00;;;;5031663;28;20205;-85
2021/06/17 01:59:21;;;;;;;3.60;3.30;;;13.00;99.90;12.50;97007.00;;;;5030907;28;20206;-85
2021/06/17 02:02:11;;;;;;;4.50;3.40;;;13.00;99.90;12.20;97004.00;;;;5030559;28;20748;-86
2021/06/17 02:05:02;;;;;;;6.67;3.60;;;12.90;99.90;12.20;97004.00;;;;5031201;28;20212;-85
2021/06/17 02:07:51;;;;;;;5.53;4.27;;;12.80;99.90;12.30;96997.00;;;;5032923;28;20205;-89
2021/06/17 02:10:43;;;;;;;4.40;4.00;;;12.80;99.90;12.30;96998.00;;;;5029072;28;20264;-87
2021/06/17 02:13:33;;;;;;;4.03;3.73;;;12.70;99.90;12.20;96991.00;;;;5030598;28;20208;-85
2021/06/17 02:16:23;;;;;;;3.90;3.50;;;12.80;99.90;12.20;97004.00;;;;5030381;28;20213;-85
2021/06/17 02:19:16;;;;;;;4.80;4.00;;;12.70;99.90;12.20;96997.00;;;;5030872;28;20719;-85
2021/06/17 02:22:08;;;;;;;3.80;3.27;;;12.70;99.90;12.40;96985.00;;;;5030239;28;20208;-85
2021/06/17 02:24:58;;;;;;;5.83;4.63;;;12.70;99.90;12.50;96993.00;;;;5030512;28;20586;-86
2021/06/17 02:27:54;;;;;;;4.43;4.03;;;12.80;99.90;12.40;96997.00;;;;5031948;28;20214;-86
2021/06/17 02:30:44;;;;;;;4.27;3.83;;;12.80;99.90;12.10;96989.00;;;;5031135;28;20727;-87
2021/06/17 02:33:36;;;;;;;4.77;4.33;;;12.80;99.90;12.10;96999.00;;;;5030983;28;20216;-89
2021/06/17 02:36:26;;;;;;;4.43;4.07;;;12.70;99.90;12.10;96998.00;;;;5031122;28;20208;-85
2021/06/17 02:39:24;;;;;;;3.57;3.27;;;12.60;99.90;12.20;96999.00;;;;5029570;28;20749;-87
2021/06/17 02:42:16;;;;;;;4.80;3.87;;;12.60;99.90;12.20;96989.00;;;;5029033;28;20372;-87
2021/06/17 02:45:07;;;;;;;4.83;4.33;;;12.60;99.90;12.20;96998.00;;;;5030698;28;20212;-85
2021/06/17 02:47:57;;;;;;;5.27;4.10;;;12.60;99.90;12.00;96981.00;;;;5030235;28;20205;-85
2021/06/17 02:50:46;;;;;;;3.77;3.40;;;12.50;99.90;12.00;96986.00;;;;5028260;28;20229;-87
2021/06/17 02:53:34;;;;;;;4.60;3.97;;;12.50;99.90;12.10;96989.00;;;;5031904;28;20209;-85
2021/06/17 02:56:30;;;;;;;4.33;3.93;;;12.50;99.90;11.70;96985.00;;;;5030559;28;20205;-88
2021/06/17 02:59:34;;;;;;;4.03;3.43;;;12.40;99.90;11.60;96991.00;;;;5030558;28;20236;-86
2021/06/17 03:02:35;;;;;;;5.23;3.83;;;12.30;99.90;11.70;96971.00;;;;5026819;28;20989;-86
2021/06/17 03:05:27;;;;;;;5.37;3.77;;;12.30;99.90;11.50;96982.00;;;;5030538;28;20216;-87
2021/06/17 03:08:23;;;;;;;5.20;4.70;;;12.20;99.90;11.70;96975.00;;;;5027031;28;20209;-85
2021/06/17 03:11:13;;;;;;;4.77;4.20;;;12.10;99.90;11.80;96980.00;;;;5018642;28;20225;-85
2021/06/17 03:14:11;;;;;;;4.70;4.10;;;12.20;99.90;12.00;96983.00;;;;5030501;28;20197;-85
2021/06/17 03:17:02;;;;;;;4.43;4.03;;;12.10;99.90;11.90;96973.00;;;;5030764;28;20694;-85
2021/06/17 03:19:55;;;;;;;6.87;4.43;;;12.20;99.90;11.50;96975.00;;;;5028774;28;20658;-86
2021/06/17 03:22:48;;;;;;;4.40;4.00;;;12.20;99.90;11.50;96976.00;;;;5019783;28;20228;-85
2021/06/17 03:31:10;;;;;;;5.87;4.33;;;12.10;99.90;11.70;96970.00;;;;5168399;27;20264;-60
2021/06/17 03:33:59;;;;;;;10.73;5.07;;;12.10;99.90;11.60;96977.00;;;;5165697;27;20211;-56
2021/06/17 03:36:50;;;;;;;9.50;4.47;;;12.10;99.90;11.50;96963.00;;;;5161985;27;20663;-57
2021/06/17 03:39:40;;;;;;;7.00;4.80;;;12.10;99.90;11.70;96970.00;;;;5151498;27;20209;-61
2021/06/17 03:42:30;;;;;;;5.07;4.50;;;12.10;99.90;11.90;96968.00;;;;5164011;27;20216;-60
2021/06/17 03:45:20;;;;;;;9.07;4.53;;;12.10;99.90;12.10;96982.00;;;;5164440;27;20228;-63
2021/06/17 03:48:13;;;;;;;5.10;4.00;;;12.20;99.90;12.10;96978.00;;;;5165535;27;20579;-60
2021/06/17 03:51:03;;;;;;;7.67;4.67;;;12.30;99.90;11.80;96979.00;;;;5164759;27;20216;-55
2021/06/17 03:53:53;;;;;;;4.10;3.67;;;12.30;99.90;11.70;96981.00;;;;5149922;27;20200;-59
2021/06/17 03:56:43;;;;;;;7.90;3.97;;;12.20;99.90;11.70;96977.00;;;;5143134;27;20197;-60
2021/06/17 03:59:36;;;;;;;5.10;3.97;;;12.20;99.90;11.90;96974.00;;;;5163245;27;20205;-58
2021/06/17 04:02:29;;;;;;;5.20;4.27;;;12.20;99.90;12.00;96975.00;;;;5163694;27;20690;-60
2021/06/17 04:05:20;;;;;;;4.57;4.10;;;12.20;99.90;12.30;96981.00;;;;5163910;27;20224;-57
2021/06/17 04:08:12;;;;;;;6.83;4.43;;;12.30;99.90;12.50;96976.00;;;;5152402;27;20201;-55
2021/06/17 04:11:04;;;;;;;6.03;4.40;;;12.50;99.90;12.50;96965.00;;;;5163779;27;20217;-55
2021/06/17 04:13:54;;;;;;;5.57;5.00;;;12.60;99.90;12.30;96968.00;;;;5164650;27;20685;-53
2021/06/17 04:16:43;;;;;;;5.57;4.97;;;12.70;99.90;12.20;96972.00;;;;5164159;27;20196;-55
2021/06/17 04:19:36;;;;;;;4.37;4.03;;;12.70;99.90;12.30;96975.00;;;;5163485;27;20258;-53
2021/06/17 04:22:30;;;;;;;4.77;4.23;;;12.70;99.90;12.40;96978.00;;;;5163932;27;20719;-57
2021/06/17 04:25:21;;;;;;;4.63;3.80;;;12.70;99.90;12.40;96981.00;;;;5163504;27;20224;-59
2021/06/17 04:28:10;;;;;;;5.10;4.60;;;12.80;99.90;12.50;96969.00;;;;5162765;27;20204;-58
2021/06/17 04:31:00;;;;;;;6.93;4.57;;;12.80;99.90;12.70;96979.00;;;;5163086;27;20217;-58
2021/06/17 04:33:49;;;;;;;4.30;3.90;;;12.90;99.90;12.80;96983.00;;;;5164798;27;20757;-56
2021/06/17 04:36:39;;;;;;;6.97;4.43;;;13.00;99.90;13.00;96987.00;;;;5147308;27;20198;-54
2021/06/17 04:39:30;;;;;;;9.60;5.03;;;13.10;99.90;13.20;96979.00;;;;5138083;27;20575;-52
2021/06/17 04:42:19;;;;;;;6.43;4.80;;;13.20;99.90;13.40;96983.00;;;;5149166;27;20252;-56
2021/06/17 04:45:10;;;;;;;4.80;4.33;;;13.40;99.90;13.50;96978.00;;;;5149230;27;20217;-56
2021/06/17 04:48:05;;;;;;;7.53;4.17;;;13.50;99.90;13.70;96987.00;;;;5148697;27;20205;-59
2021/06/17 04:50:55;;;;;;;6.37;4.40;;;13.70;99.90;13.90;96984.00;;;;5148458;27;20232;-58
2021/06/17 04:53:43;;;;;;;4.70;4.30;;;13.80;99.90;13.90;96985.00;;;;5148887;27;20220;-61
2021/06/17 04:56:33;;;;;;;9.80;4.50;;;14.00;99.90;13.90;96981.00;;;;5148629;27;20202;-55
2021/06/17 04:59:23;;;;;;;4.40;4.00;;;14.10;99.90;14.10;96993.00;;;;5150005;27;20197;-58
2021/06/17 05:02:12;;;;;;;4.67;4.27;;;14.20;99.90;14.20;96991.00;;;;5149381;27;20217;-56
2021/06/17 05:05:01;;;;;;;5.23;4.73;;;14.30;99.90;14.30;96987.00;;;;5149839;27;20221;-56
2021/06/17 05:10:48;;;;;;;4.73;4.13;;;14.40;99.90;14.30;96976.00;;;;5149140;27;20201;-60
2021/06/17 05:11:02;;;;;;;4.53;4.00;;;14.50;99.90;14.70;96992.00;;;;5147842;27;20675;-53
2021/06/17 05:13:52;;;;;;;6.67;4.10;;;14.70;99.90;14.80;96986.00;;;;5148662;27;20205;-56
2021/06/17 05:16:41;;;;;;;8.33;4.10;;;14.80;99.90;15.10;96981.00;;;;5149793;27;20204;-58
2021/06/17 05:19:31;;;;;;;8.73;4.50;;;15.00;99.90;15.10;96987.00;;;;5148710;27;20193;-57
2021/06/17 05:22:20;;;;;;;7.20;3.60;;;15.20;99.90;15.20;96969.00;;;;5148895;27;20225;-59
2021/06/17 05:25:10;;;;;;;4.77;4.30;;;15.30;99.90;15.40;96985.00;;;;5147751;27;20225;-58
2021/06/17 05:27:59;;;;;;;5.57;4.30;;;15.40;99.90;15.60;96975.00;;;;5148200;27;20618;-61
2021/06/17 05:30:51;;;;;;;5.77;4.03;;;15.60;99.90;15.80;96974.00;;;;5147708;27;20256;-60
2021/06/17 05:33:39;;;;;;;6.53;4.73;;;15.70;99.90;15.90;96975.00;;;;5149843;27;20193;-61
2021/06/17 05:36:28;;;;;;;6.70;4.97;;;15.90;99.90;16.20;96980.00;;;;5147318;27;20573;-58
2021/06/17 05:39:17;;;;;;;6.80;4.83;;;16.00;99.90;16.40;96979.00;;;;5147921;27;20574;-58
2021/06/17 05:42:07;;;;;;;6.20;5.50;;;16.20;99.90;16.50;96972.00;;;;5149347;27;20221;-57
2021/06/17 05:44:56;;;;;;;6.10;5.07;;;16.40;99.90;16.90;96976.00;;;;5148561;27;20228;-58
2021/06/17 05:47:46;;;;;;;6.90;4.33;;;16.60;99.90;17.10;96983.00;;;;5139319;27;20221;-59
2021/06/17 05:50:35;;;;;;;6.70;4.57;;;16.80;99.90;17.40;96977.00;;;;5141423;27;20537;-60
2021/06/17 05:53:24;;;;;;;6.00;4.73;;;17.00;99.90;17.60;96981.00;;;;5148707;27;20197;-56
2021/06/17 05:56:13;;;;;;;8.33;4.60;;;17.20;99.90;17.70;96980.00;;;;5134514;27;20584;-59
2021/06/17 05:59:04;;;;;;;7.80;5.13;;;17.40;99.90;17.80;96983.00;;;;5148012;27;20207;-56
2021/06/17 06:01:53;;;;;;;7.47;5.13;;;17.70;99.90;17.90;96985.00;;;;5146727;27;20217;-56
2021/06/17 06:04:43;;;;;;;6.07;4.50;;;17.80;99.90;18.20;96992.00;;;;5137115;27;20193;-60
2021/06/17 06:07:32;;;;;;;6.13;4.23;;;17.90;99.90;18.10;96991.00;;;;5133816;27;20672;-59
2021/06/17 06:10:20;;;;;;;19.57;6.13;;;18.00;99.90;18.30;96988.00;;;;5146681;27;20849;-56
2021/06/17 06:13:09;;;;;;;10.53;4.97;;;18.20;99.90;18.50;96983.00;;;;5148342;27;20197;-58
2021/06/17 06:15:58;;;;;;;6.70;5.30;;;18.30;99.90;18.60;96991.00;;;;5147586;27;20208;-60
2021/06/17 06:18:47;;;;;;;8.10;5.20;;;18.50;99.90;18.80;96999.00;;;;5132188;27;20205;-54
2021/06/17 06:21:37;;;;;;;6.70;4.47;;;18.60;99.90;18.90;96991.00;;;;5109621;27;20226;-60
2021/06/17 06:24:29;;;;;;;5.03;4.17;;;18.80;99.90;19.00;96992.00;;;;5127381;27;20219;-56
2021/06/17 06:27:17;;;;;;;6.83;5.37;;;18.90;99.90;19.30;96988.00;;;;5115804;27;20201;-58
2021/06/17 06:30:08;;;;;;;8.80;4.13;;;19.10;99.90;19.50;96996.00;;;;5136651;27;20220;-57
2021/06/17 06:32:57;;;;;;;6.60;3.90;;;19.20;99.90;19.80;96998.00;;;;5147855;27;20198;-54
2021/06/17 06:35:47;;;;;;;8.67;4.40;;;19.50;99.90;19.90;97007.00;;;;5131110;27;20197;-57
2021/06/17 06:38:38;;;;;;;8.83;4.33;;;19.70;99.90;20.10;97003.00;;;;5147217;27;20204;-56
2021/06/17 06:41:26;;;;;;;13.47;4.53;;;19.80;99.90;20.40;97007.00;;;;5146167;27;20513;-57
2021/06/17 06:44:15;;;;;;;7.70;4.03;;;20.10;99.90;20.40;97022.00;;;;5146238;27;20209;-56
2021/06/17 06:47:04;;;;;;;8.80;3.70;;;20.30;99.90;20.80;97009.00;;;;5147280;27;20517;-57
2021/06/17 06:49:53;;;;;;;8.60;4.57;;;20.40;99.90;21.00;97006.00;;;;5133665;27;20208;-58
2021/06/17 06:52:42;;;;;;;6.83;4.87;;;20.60;99.90;21.40;97023.00;;;;5146069;27;20202;-59
2021/06/17 06:55:33;;;;;;;8.20;5.17;;;20.90;99.90;21.70;97015.00;;;;5145936;27;20219;-57
2021/06/17 06:58:22;;;;;;;6.57;3.83;;;21.10;99.90;21.90;97020.00;;;;5134780;27;20683;-56
2021/06/17 07:01:11;;;;;;;7.10;4.50;;;21.40;99.90;22.10;97014.00;;;;5139969;27;20514;-56
2021/06/17 07:04:02;;;;;;;10.07;3.87;;;21.60;99.90;22.30;97014.00;;;;5129044;27;20698;-59
2021/06/17 07:06:50;;;;;;;7.23;4.70;;;21.80;99.90;22.60;97023.00;;;;5147205;27;20240;-59
2021/06/17 07:09:40;;;;;;;7.30;3.97;;;22.00;99.90;22.90;97024.00;;;;5146131;27;20812;-56
2021/06/17 07:12:30;;;;;;;4.40;2.97;;;22.30;99.90;23.10;97017.00;;;;5133565;27;20224;-59
2021/06/17 07:15:19;;;;;;;7.27;3.40;;;22.50;99.10;23.30;97027.00;;;;5139050;27;20677;-59
2021/06/17 07:18:08;;;;;;;7.50;3.53;;;22.70;96.30;23.40;97021.00;;;;5131286;27;20208;-61
2021/06/17 07:20:57;;;;;;;5.97;3.00;;;22.90;95.10;23.60;97033.00;;;;5143839;27;20591;-60
2021/06/17 07:23:50;;;;;;;6.57;3.33;;;23.10;94.00;23.80;97027.00;;;;5139866;27;20217;-62
2021/06/17 07:26:39;;;;;;;4.60;3.70;;;23.30;93.10;24.00;97026.00;;;;5143300;27;20220;-59
2021/06/17 07:29:29;;;;;;;7.13;2.90;;;23.50;92.00;24.10;97032.00;;;;5147568;27;20655;-61
2021/06/17 07:32:18;;;;;;;5.93;3.77;;;23.60;90.70;24.30;97020.00;;;;5138256;27;20221;-59
2021/06/17 07:35:09;;;;;;;4.53;3.70;;;23.90;89.10;24.40;97019.00;;;;5132502;27;20197;-61
2021/06/17 07:37:58;;;;;;;3.63;2.70;;;24.00;87.70;24.40;97014.00;;;;5148226;27;20591;-60
2021/06/17 07:40:46;;;;;;;3.20;2.90;;;24.20;84.20;24.50;97026.00;;;;5146595;27;20213;-61
2021/06/17 07:43:35;;;;;;;3.33;3.03;;;24.30;81.30;24.70;97016.00;;;;5136751;27;20216;-59
2021/06/17 07:46:26;;;;;;;3.47;3.17;;;24.40;80.40;24.80;97022.00;;;;5146534;27;20221;-61
2021/06/17 07:49:14;;;;;;;3.43;2.93;;;24.50;78.40;24.90;97014.00;;;;5141413;27;20209;-61
2021/06/17 07:52:04;;;;;;;9.03;2.87;;;24.60;77.90;24.70;97018.00;;;;5139517;27;20224;-58
2021/06/17 07:54:53;;;;;;;6.63;3.60;;;25.00;74.20;25.00;97018.00;;;;5139765;27;20593;-60
2021/06/17 07:57:42;;;;;;;8.10;3.33;;;24.70;74.30;25.20;97019.00;;;;5140410;27;20197;-64
2021/06/17 08:00:31;;;;;;;4.40;2.80;;;24.90;74.70;25.50;97031.00;;;;5141920;27;20235;-69
2021/06/17 08:03:21;;;;;;;3.33;2.97;;;25.00;73.70;25.70;97026.00;;;;5147145;27;20205;-69
2021/06/17 08:06:10;;;;;;;6.40;3.80;;;25.20;75.00;25.90;97022.00;;;;5135612;27;20217;-69
2021/06/17 08:09:00;;;;;;;3.70;3.27;;;25.40;73.90;26.10;97029.00;;;;5147992;27;20208;-70
2021/06/17 08:11:51;;;;;;;5.93;3.30;;;25.60;73.20;26.30;97038.00;;;;5148861;27;20245;-70
2021/06/17 08:14:42;;;;;;;4.20;3.17;;;25.80;72.30;26.40;97029.00;;;;5150431;27;20576;-64
2021/06/17 08:17:31;;;;;;;4.57;3.43;;;26.00;71.10;26.50;97032.00;;;;5150425;27;20204;-65
2021/06/17 08:20:21;;;;;;;8.80;3.20;;;26.10;68.80;26.60;97033.00;;;;5149259;27;20203;-65
2021/06/17 08:23:11;;;;;;;4.13;2.63;;;26.30;68.20;26.60;97028.00;;;;5148042;27;20202;-65
2021/06/17 08:26:00;;;;;;;5.17;2.80;;;26.40;63.70;26.30;97026.00;;;;5150749;27;20211;-66
2021/06/17 08:28:49;;;;;;;6.43;3.83;;;26.40;65.80;26.60;97021.00;;;;5137534;27;20202;-65
2021/06/17 08:31:40;;;;;;;4.30;2.87;;;26.40;65.40;26.60;97021.00;;;;5148370;27;20222;-65
2021/06/17 08:34:29;;;;;;;4.60;4.10;;;26.50;63.20;26.70;97023.00;;;;5149520;27;20731;-65
2021/06/17 08:37:19;;;;;;;3.93;3.33;;;26.50;61.80;26.70;97019.00;;;;5149554;27;20671;-66
2021/06/17 08:40:09;;;;;;;5.37;3.07;;;26.60;61.10;26.90;97028.00;;;;5149636;27;20197;-61
2021/06/17 08:42:59;;;;;;;4.03;3.47;;;26.60;61.00;26.20;97027.00;;;;5150213;27;20700;-64
2021/06/17 08:45:47;;;;;;;6.40;3.30;;;26.50;60.60;26.70;97025.00;;;;5149842;27;20198;-63
2021/06/17 08:48:36;;;;;;;4.97;3.00;;;26.50;60.20;27.10;97009.00;;;;5149189;27;20199;-63
2021/06/17 08:51:27;;;;;;;3.87;3.30;;;26.60;61.30;27.20;97025.00;;;;5136373;27;20219;-64
2021/06/17 08:54:20;;;;;;;6.13;3.30;;;26.80;60.80;27.50;97010.00;;;;5148965;27;20208;-62
2021/06/17 08:57:09;;;;;;;4.60;3.60;;;27.00;61.80;27.20;97012.00;;;;5148955;27;20211;-61
2021/06/17 08:59:58;;;;;;;9.97;4.70;;;27.10;61.20;27.60;97008.00;;;;5138317;27;20213;-63
2021/06/17 09:02:56;;;;;;;6.87;4.27;;;27.20;61.90;26.80;97011.00;;;;5148490;27;20198;-65
2021/06/17 09:05:50;;;;;;;6.93;3.50;;;27.30;59.30;26.90;97017.00;;;;5131789;27;20201;-64
2021/06/17 09:08:39;;;;;;;7.03;4.20;;;27.10;59.40;26.30;97017.00;;;;5150193;27;20319;-63
2021/06/17 09:11:30;;;;;;;4.40;3.77;;;26.90;59.50;26.60;97002.00;;;;5147961;27;20222;-63
2021/06/17 09:14:21;;;;;;;4.00;3.37;;;26.70;59.70;26.60;97013.00;;;;5139388;27;20199;-63
2021/06/17 09:17:11;;;;;;;4.90;3.33;;;26.80;59.10;27.20;97006.00;;;;5150300;27;20200;-62
2021/06/17 09:20:00;;;;;;;5.40;4.40;;;26.80;58.60;27.90;97007.00;;;;5145868;27;20254;-63
2021/06/17 09:22:49;;;;;;;4.57;3.47;;;27.10;60.00;28.20;97019.00;;;;5146913;27;20210;-64
2021/06/17 09:25:47;;;;;;;3.57;3.10;;;27.40;59.90;28.70;97014.00;;;;5149476;27;20226;-63
2021/06/17 09:28:52;;;;;;;3.50;2.93;;;27.80;59.00;28.80;97011.00;;;;5149380;27;20230;-64
2021/06/17 09:31:44;;;;;;;3.30;3.00;;;28.10;58.50;29.00;97007.00;;;;5148973;27;20230;-61
2021/06/17 09:34:33;;;;;;;5.20;3.53;;;28.40;58.30;29.10;96998.00;;;;5147533;27;20198;-62
2021/06/17 09:37:35;;;;;;;3.87;3.17;;;28.60;57.70;29.50;97004.00;;;;5148525;27;20214;-64
2021/06/17 09:40:30;;;;;;;3.07;2.80;;;28.80;57.30;29.40;97003.00;;;;5147960;27;20258;-63
2021/06/17 09:43:25;;;;;;;4.77;3.03;;;28.90;57.20;29.10;97003.00;;;;5142388;27;20686;-63
2021/06/17 09:46:15;;;;;;;5.63;3.23;;;29.00;55.70;28.90;97008.00;;;;5144459;27;20208;-65
2021/06/17 09:49:07;;;;;;;6.43;3.63;;;28.90;54.60;29.40;97012.00;;;;5143877;27;20206;-63
2021/06/17 09:51:58;;;;;;;4.73;3.73;;;29.00;55.60;29.50;97000.00;;;;5119351;27;20219;-63
2021/06/17 09:54:49;;;;;;;3.23;2.93;;;29.10;54.30;28.90;96998.00;;;;5148883;27;20213;-65
2021/06/17 09:57:38;;;;;;;17.07;5.30;;;29.20;53.80;27.50;96991.00;;;;5148968;27;20231;-64
2021/06/17 10:00:27;;;;;;;10.83;5.17;;;28.50;53.80;29.00;97007.00;;;;5147639;27;21039;-63
2021/06/17 10:03:17;;;;;;;4.43;3.20;;;28.50;56.70;29.80;97002.00;;;;5137045;27;20214;-63
2021/06/17 10:06:18;;;;;;;3.87;2.97;;;28.70;56.90;30.20;96999.00;;;;5147647;27;20198;-63
2021/06/17 10:09:10;;;;;;;3.17;2.87;;;29.10;56.30;30.50;97004.00;;;;5148392;27;20208;-61
2021/06/17 10:11:59;;;;;;;3.87;3.50;;;29.50;55.10;30.30;96990.00;;;;5148293;27;20225;-63
2021/06/17 10:14:49;;;;;;;4.07;3.67;;;29.70;53.90;30.60;97003.00;;;;5147828;27;20199;-62
2021/06/17 10:17:38;;;;;;;6.30;3.30;;;30.00;54.30;29.90;97008.00;;;;5136617;27;20577;-61
2021/06/17 10:20:29;;;;;;;3.87;3.57;;;29.90;54.40;30.30;97003.00;;;;5147217;27;20231;-62
2021/06/17 10:23:22;;;;;;;5.17;3.50;;;29.90;53.30;30.10;97001.00;;;;5147762;27;20202;-63
2021/06/17 10:26:11;;;;;;;4.13;2.90;;;30.00;54.00;30.10;96986.00;;;;5148355;27;20194;-60
2021/06/17 10:29:00;;;;;;;4.30;3.70;;;29.90;52.60;30.40;96976.00;;;;5147757;27;20234;-62
2021/06/17 10:31:51;;;;;;;4.07;2.90;;;30.00;53.80;31.30;96978.00;;;;5148105;27;20231;-63
2021/06/17 10:34:46;;;;;;;5.80;3.00;;;30.20;53.90;31.20;96977.00;;;;5147817;27;20191;-63
2021/06/17 10:37:53;;;;;;;3.30;3.03;;;30.40;52.70;30.50;96977.00;;;;5147454;27;20199;-63
2021/06/17 10:40:45;;;;;;;5.60;3.80;;;30.40;53.90;31.10;96988.00;;;;5139189;27;20221;-63
2021/06/17 10:43:36;;;;;;;3.92;3.53;;;30.50;54.20;30.90;96982.00;;;;5146107;27;20539;-63
2021/06/17 10:46:45;;;;;;;5.03;3.20;;;30.60;52.30;31.50;96978.00;;;;5144656;27;20200;-61
2021/06/17 10:50:03;;;;;;;3.67;3.38;;;30.80;52.70;31.60;96970.00;;;;5138363;27;20666;-63
2021/06/17 10:52:55;;;;;;;3.03;2.72;;;30.90;52.70;32.00;96970.00;;;;5147170;27;20696;-60
2021/06/17 10:55:53;;;;;;;7.88;3.70;;;31.20;53.30;30.80;96974.00;;;;5147378;27;20196;-62
2021/06/17 10:59:06;;;;;;;3.63;3.22;;;31.30;52.70;29.70;96952.00;;;;5147538;27;20570;-60
2021/06/17 11:02:09;;;;;;;5.60;3.67;;;30.50;52.10;29.80;96958.00;;;;5135209;27;20242;-65
2021/06/17 11:04:58;;;;;;;5.67;3.73;;;30.40;52.70;30.60;96948.00;;;;5146289;27;20619;-62
2021/06/17 11:08:22;;;;;;;4.73;4.17;;;30.40;53.00;30.40;96945.00;;;;5147226;27;20592;-62
2021/06/17 11:11:11;;;;;;;4.70;3.47;;;30.40;52.70;30.90;96939.00;;;;5145981;27;20240;-61
2021/06/17 11:14:01;;;;;;;3.40;3.10;;;30.30;52.90;31.40;96935.00;;;;5133919;27;20199;-62
2021/06/17 11:16:59;;;;;;;5.57;3.40;;;30.60;53.60;32.30;96941.00;;;;5146619;27;20213;-68
2021/06/17 11:20:10;;;;;;;4.82;3.85;;;30.90;53.70;32.40;96944.00;;;;5139683;27;20202;-63
2021/06/17 11:23:02;;;;;;;7.20;3.70;;;31.40;52.90;32.70;96926.00;;;;5146558;27;20204;-62
2021/06/17 11:25:59;;;;;;;3.05;2.75;;;31.70;52.10;32.30;96936.00;;;;5146231;27;20606;-62
2021/06/17 11:28:53;;;;;;;5.78;3.78;;;31.90;52.20;33.10;96928.00;;;;5126967;28;20371;-62
2021/06/17 11:31:44;;;;;;;4.20;3.78;;;32.10;52.90;33.40;96931.00;;;;5146529;27;20220;-63
2021/06/17 11:34:38;;;;;;;4.63;3.72;;;32.40;52.70;33.60;96926.00;;;;5147387;27;20680;-63
2021/06/17 11:37:33;;;;;;;4.80;3.78;;;32.60;52.20;33.40;96937.00;;;;5144506;27;20559;-63
2021/06/17 11:40:21;;;;;;;4.95;3.95;;;32.80;51.80;32.80;96934.00;;;;5134378;27;20200;-63
2021/06/17 11:43:12;;;;;;;5.68;4.30;;;32.90;51.10;30.20;96908.00;;;;5146950;27;20574;-62
2021/06/17 11:46:01;;;;;;;6.88;4.82;;;32.30;49.60;29.60;96924.00;;;;5148165;27;20195;-62
2021/06/17 11:48:56;;;;;;;3.75;3.45;;;31.00;51.20;31.90;96911.00;;;;5138477;27;20778;-65
2021/06/17 11:51:48;;;;;;;4.50;4.10;;;31.10;52.80;30.90;96908.00;;;;5138963;27;20213;-62
2021/06/17 11:54:37;;;;;;;7.13;4.20;;;31.20;51.50;31.70;96920.00;;;;5139284;27;20653;-62
2021/06/17 11:57:28;;;;;;;7.55;4.30;;;31.40;52.90;30.70;96974.00;;;;5141083;27;20204;-63
2021/06/17 12:00:32;;;;;;;4.05;3.75;;;31.20;52.10;30.60;96971.00;;;;5149590;27;20211;-62
2021/06/17 12:03:23;;;;;;;4.93;4.40;;;30.90;53.20;31.70;96894.00;;;;5148832;27;20226;-61
2021/06/17 12:06:13;;;;;;;4.60;4.20;;;30.90;53.30;31.20;96960.00;;;;5146158;27;20423;-61
2021/06/17 12:09:07;;;;;;;6.90;4.50;;;31.00;52.40;30.80;96891.00;;;;5148931;27;20781;-61
2021/06/17 12:12:19;;;;;;;5.25;4.22;;;30.90;52.70;32.60;96889.00;;;;5146260;27;20219;-62
2021/06/17 12:15:10;;;;;;;5.00;4.25;;;31.10;53.80;31.60;96967.00;;;;5148425;27;20208;-63
2021/06/17 12:18:02;;;;;;;4.45;4.05;;;31.20;53.60;30.50;96964.00;;;;5149814;27;20606;-60
2021/06/17 12:20:52;;;;;;;4.03;3.65;;;31.00;53.40;30.60;96957.00;;;;5149505;27;20220;-63
2021/06/17 12:23:41;;;;;;;5.18;4.30;;;30.80;54.20;30.00;96967.00;;;;5144906;27;20816;-63
2021/06/17 12:26:32;;;;;;;6.80;3.90;;;30.60;53.50;30.20;96961.00;;;;5107213;28;20212;-62
2021/06/17 12:29:26;;;;;;;4.13;3.70;;;30.30;54.10;30.00;96956.00;;;;5108091;28;20222;-63
2021/06/17 12:32:16;;;;;;;7.60;3.72;;;30.30;54.80;30.00;96886.00;;;;5109195;22;20232;-85
2021/06/17 12:35:16;;;;;;;5.68;3.72;;;30.10;55.60;32.70;96879.00;;;;5069309;28;20200;-85
2021/06/17 12:38:06;;;;;;;6.03;3.83;;;30.80;55.80;34.00;96880.00;;;;5072151;28;20708;-84
2021/06/17 12:40:56;;;;;;;6.10;4.22;;;31.60;55.30;33.40;96880.00;;;;5074455;28;20206;-85
2021/06/17 12:43:48;;;;;;;5.85;3.88;;;32.40;53.60;34.20;96882.00;;;;5084019;28;20209;-85
2021/06/17 12:46:39;;;;;;;6.07;5.20;;;32.80;52.80;33.10;96953.00;;;;5072238;28;20207;-85
2021/06/17 12:52:36;;;;;;;6.70;4.38;;;33.10;51.80;35.00;96875.00;;;;5089415;28;20229;-86